| time (UTC) | temp F | wind direction | speed knots | gust knots | rain 1hr in | rain 24hr in | rain mn in | humidity % | barometer mb |
| 20260504204616 | 82 | 219 | 4.3 | 12.2 | 0.00 | 0.05 | 0.05 | 47 | 998.0 |
| 20260504203616 | 82 | 229 | 4.3 | 11.3 | 0.00 | 0.05 | 0.05 | 47 | 998.0 |
| 20260504202544 | 81 | 240 | 5.2 | 12.2 | 0.00 | 0.05 | 0.05 | 48 | 998.3 |
| 20260504201543 | 81 | 229 | 3.5 | 12.2 | 0.00 | 0.05 | 0.05 | 48 | 998.3 |
| 20260504200543 | 80 | 224 | 5.2 | 15.6 | 0.00 | 0.05 | 0.05 | 49 | 998.6 |
| 20260504195542 | 80 | 240 | 6.1 | 13.9 | 0.00 | 0.05 | 0.05 | 48 | 998.6 |
| 20260504194542 | 80 | 241 | 7.8 | 19.1 | 0.00 | 0.05 | 0.05 | 49 | 998.6 |
| 20260504193541 | 80 | 232 | 7.0 | 16.5 | 0.00 | 0.05 | 0.05 | 49 | 998.6 |
| 20260504192540 | 80 | 227 | 6.1 | 10.4 | 0.00 | 0.05 | 0.05 | 48 | 999.0 |
| 20260504191540 | 80 | 213 | 5.2 | 12.2 | 0.00 | 0.05 | 0.05 | 49 | 999.0 |
| 20260504190539 | 79 | 233 | 4.3 | 13.9 | 0.00 | 0.05 | 0.05 | 50 | 999.0 |
| 20260504185507 | 79 | 247 | 7.0 | 12.2 | 0.00 | 0.05 | 0.05 | 49 | 999.0 |
| 20260504184507 | 79 | 242 | 7.0 | 12.2 | 0.00 | 0.05 | 0.05 | 49 | 998.6 |
| 20260504183506 | 79 | 182 | 4.3 | 13.0 | 0.00 | 0.05 | 0.05 | 50 | 998.6 |
| 20260504182505 | 78 | 197 | 5.2 | 11.3 | 0.00 | 0.05 | 0.05 | 49 | 998.6 |
| 20260504181505 | 78 | 243 | 4.3 | 16.5 | 0.00 | 0.05 | 0.05 | 51 | 999.0 |
| 20260504180433 | 78 | 232 | 7.8 | 18.2 | 0.00 | 0.05 | 0.05 | 49 | 999.0 |
| 20260504175432 | 78 | 234 | 5.2 | 10.4 | 0.00 | 0.05 | 0.05 | 50 | 999.0 |
| 20260504174431 | 78 | 207 | 5.2 | 11.3 | 0.00 | 0.05 | 0.05 | 51 | 999.3 |
| 20260504173431 | 77 | 218 | 5.2 | 11.3 | 0.00 | 0.05 | 0.05 | 52 | 999.3 |
| 20260504172430 | 77 | 231 | 9.6 | 16.5 | 0.00 | 0.05 | 0.05 | 50 | 999.3 |
| 20260504171430 | 77 | 224 | 4.3 | 12.2 | 0.00 | 0.05 | 0.05 | 52 | 999.7 |
| 20260504170429 | 77 | 226 | 5.2 | 8.7 | 0.00 | 0.05 | 0.05 | 52 | 999.7 |
| 20260504160322 | 74 | 233 | 7.8 | 13.9 | 0.00 | 0.05 | 0.05 | 54 | 1000.3 |
| 20260504150318 | 72 | 235 | 5.2 | 12.2 | 0.00 | 0.05 | 0.05 | 60 | 1000.7 |
| 20260504141213 | 68 | 234 | 4.3 | 7.8 | 0.00 | 0.05 | 0.05 | 67 | 1001.0 |
| 20260504140213 | 67 | 234 | 4.3 | 8.7 | 0.00 | 0.05 | 0.05 | 69 | 1001.0 |
| 20260504130208 | 64 | 223 | 3.5 | 5.2 | 0.00 | 0.05 | 0.05 | 75 | 1001.4 |
| 20260504120204 | 64 | 331 | 0.0 | 4.3 | 0.00 | 0.05 | 0.05 | 70 | 1001.4 |
| 20260504081843 | 57 | 197 | 0.0 | 0.0 | 0.01 | 0.05 | 0.05 | 89 | 1003.4 |
| 20260504080843 | 57 | 197 | 0.0 | 0.0 | 0.02 | 0.05 | 0.05 | 89 | 1003.7 |
| 20260504050556 | 60 | 265 | 1.7 | 2.6 | 0.00 | 0.00 | 0.00 | 74 | 1004.7 |
| 20260504045555 | 60 | 275 | 0.0 | 0.0 | 0.00 | 0.00 | 0.00 | 74 | 1005.1 |
| 20260504044554 | 60 | 275 | 0.0 | 0.0 | 0.00 | 0.00 | 0.00 | 74 | 1005.1 |
| 20260504043554 | 60 | 275 | 0.0 | 0.0 | 0.00 | 0.00 | 0.00 | 74 | 1005.1 |
| 20260504042554 | 60 | 275 | 0.0 | 0.0 | 0.00 | 0.00 | 0.00 | 73 | 1005.1 |
| 20260504041552 | 60 | 275 | 0.0 | 0.9 | 0.00 | 0.00 | 0.00 | 73 | 1005.1 |
| 20260504040552 | 60 | 275 | 0.0 | 0.0 | 0.00 | 0.00 | 0.00 | 71 | 1005.4 |
| 20260504035551 | 61 | 275 | 0.0 | 0.0 | 0.00 | 0.00 | 0.00 | 70 | 1005.4 |
| 20260504034551 | 61 | 275 | 0.0 | 0.0 | 0.00 | 0.00 | 0.00 | 69 | 1005.4 |
| 20260504033550 | 62 | 275 | 0.0 | 0.0 | 0.00 | 0.00 | 0.00 | 68 | 1005.4 |
| 20260504032518 | 62 | 275 | 0.0 | 0.0 | 0.00 | 0.00 | 0.00 | 67 | 1005.4 |
| 20260504031518 | 63 | 275 | 0.0 | 0.0 | 0.00 | 0.00 | 0.00 | 66 | 1005.4 |
| 20260504030415 | 63 | 275 | 0.0 | 0.0 | 0.00 | 0.00 | 0.00 | 66 | 1005.4 |
| 20260504025414 | 64 | 275 | 0.0 | 0.0 | 0.00 | 0.00 | 0.00 | 65 | 1005.4 |
| 20260504024414 | 64 | 275 | 0.0 | 0.0 | 0.00 | 0.00 | 0.00 | 64 | 1005.4 |
| 20260504023413 | 64 | 275 | 0.0 | 0.0 | 0.00 | 0.00 | 0.00 | 64 | 1005.4 |
| 20260504022412 | 65 | 275 | 0.0 | 0.0 | 0.00 | 0.00 | 0.00 | 63 | 1005.1 |
| 20260504021411 | 65 | 275 | 0.0 | 0.0 | 0.00 | 0.00 | 0.00 | 62 | 1005.4 |
| 20260504020411 | 66 | 275 | 0.0 | 0.0 | 0.00 | 0.00 | 0.00 | 61 | 1005.4 |
| 20260504015410 | 66 | 275 | 0.0 | 0.0 | 0.00 | 0.00 | 0.00 | 60 | 1005.4 |
| 20260504014409 | 67 | 275 | 0.0 | 0.0 | 0.00 | 0.00 | 0.00 | 60 | 1005.4 |
| 20260504013409 | 68 | 275 | 0.0 | 0.0 | 0.00 | 0.00 | 0.00 | 58 | 1005.4 |
| 20260504012408 | 68 | 275 | 0.0 | 0.0 | 0.00 | 0.00 | 0.00 | 58 | 1005.1 |
| 20260504011407 | 69 | 275 | 0.0 | 0.0 | 0.00 | 0.00 | 0.00 | 57 | 1005.4 |
| 20260504010407 | 69 | 275 | 0.0 | 0.0 | 0.00 | 0.00 | 0.00 | 56 | 1005.4 |
| 20260504005406 | 69 | 275 | 0.0 | 0.0 | 0.00 | 0.00 | 0.00 | 54 | 1005.1 |
| 20260504004406 | 70 | 275 | 0.0 | 0.0 | 0.00 | 0.00 | 0.00 | 54 | 1005.1 |
| 20260504003405 | 70 | 275 | 0.0 | 1.7 | 0.00 | 0.00 | 0.00 | 54 | 1005.4 |
| 20260504002405 | 70 | 274 | 3.5 | 6.1 | 0.00 | 0.00 | 0.00 | 53 | 1005.4 |
| 20260504001404 | 70 | 271 | 0.9 | 5.2 | 0.00 | 0.00 | 0.00 | 53 | 1005.8 |
| 20260504000404 | 71 | 274 | 0.9 | 0.9 | 0.00 | 0.00 | 0.00 | 52 | 1005.4 |
| 20260503235403 | 71 | 274 | 0.0 | 0.9 | 0.00 | 0.00 | 0.00 | 51 | 1005.8 |
| 20260503234332 | 71 | 274 | 0.0 | 0.0 | 0.00 | 0.00 | 0.00 | 51 | 1005.4 |
| 20260503233331 | 72 | 274 | 0.0 | 2.6 | 0.00 | 0.00 | 0.00 | 50 | 1005.8 |
| 20260503232330 | 72 | 263 | 0.0 | 3.5 | 0.00 | 0.00 | 0.00 | 50 | 1005.4 |
| 20260503231329 | 72 | 263 | 0.9 | 8.7 | 0.00 | 0.00 | 0.00 | 50 | 1005.8 |
| 20260503230329 | 73 | 284 | 2.6 | 7.8 | 0.00 | 0.00 | 0.00 | 50 | 1005.8 |
| 20260503225328 | 73 | 299 | 3.5 | 7.0 | 0.00 | 0.00 | 0.00 | 52 | 1005.8 |
| 20260503224327 | 73 | 266 | 4.3 | 9.6 | 0.00 | 0.00 | 0.00 | 51 | 1005.8 |
| 20260503223327 | 73 | 277 | 3.5 | 9.6 | 0.00 | 0.00 | 0.00 | 51 | 1006.1 |
| 20260503222326 | 73 | 252 | 4.3 | 8.7 | 0.00 | 0.00 | 0.00 | 50 | 1006.1 |
| 20260503221326 | 73 | 274 | 7.0 | 10.4 | 0.00 | 0.00 | 0.00 | 50 | 1006.1 |
| 20260503220325 | 73 | 270 | 4.3 | 7.0 | 0.00 | 0.00 | 0.00 | 50 | 1005.8 |
| 20260503215324 | 73 | 254 | 4.3 | 8.7 | 0.00 | 0.00 | 0.00 | 50 | 1005.4 |
| 20260503214253 | 73 | 266 | 2.6 | 11.3 | 0.00 | 0.00 | 0.00 | 50 | 1005.8 |
| 20260503213252 | 73 | 266 | 5.2 | 10.4 | 0.00 | 0.00 | 0.00 | 49 | 1006.1 |
| 20260503212251 | 73 | 256 | 5.2 | 12.2 | 0.00 | 0.00 | 0.00 | 48 | 1005.8 |
| 20260503211251 | 74 | 265 | 6.1 | 13.9 | 0.00 | 0.00 | 0.00 | 47 | 1006.1 |
| 20260503210250 | 74 | 259 | 8.7 | 20.0 | 0.00 | 0.00 | 0.00 | 46 | 1006.4 |
| 20260503205249 | 74 | 262 | 7.8 | 13.9 | 0.00 | 0.00 | 0.00 | 48 | 1006.4 |